Time;durP1;ratioP1;P1;durP2;ratioP2;P2;SDS_P1;SDS_P2;PMS_P1;PMS_P2;Temp;Humidity;BMP_temperature;BMP_pressure;BME280_temperature;BME280_humidity;BME280_pressure;Samples;Min_cycle;Max_cycle;Signal;HPM_P1;HPM_P2
2023/09/03 00:00:40;;;;;;;8.50;7.60;;;14.10;99.90;;;;;;5080171;28;20499;-75
2023/09/03 00:03:07;;;;;;;8.75;7.10;;;14.10;99.90;;;;;;5073277;28;20406;-75
2023/09/03 00:05:35;;;;;;;8.88;7.07;;;14.00;99.90;;;;;;5073326;28;20407;-75
2023/09/03 00:08:00;;;;;;;8.90;7.82;;;14.00;99.90;;;;;;5060789;28;20028;-75
2023/09/03 00:10:26;;;;;;;10.40;7.70;;;14.00;99.90;;;;;;5081369;28;20423;-75
2023/09/03 00:12:51;;;;;;;8.93;7.22;;;14.10;99.90;;;;;;5064093;28;20051;-75
2023/09/03 00:15:21;;;;;;;8.63;6.50;;;14.10;99.90;;;;;;5072052;28;20044;-75
2023/09/03 00:17:47;;;;;;;7.18;6.22;;;14.10;99.90;;;;;;5062141;28;20093;-75
2023/09/03 00:20:13;;;;;;;7.10;6.40;;;14.00;99.90;;;;;;5057026;28;20086;-75
2023/09/03 00:22:39;;;;;;;8.10;6.72;;;13.90;99.90;;;;;;5063634;28;20069;-75
2023/09/03 00:25:05;;;;;;;9.43;8.40;;;13.70;99.90;;;;;;5074453;28;20043;-75
2023/09/03 00:27:32;;;;;;;10.65;8.60;;;13.60;99.90;;;;;;5068238;28;20068;-75
2023/09/03 00:29:57;;;;;;;9.10;7.60;;;13.60;99.90;;;;;;5090097;28;20215;-75
2023/09/03 00:32:23;;;;;;;8.60;7.22;;;13.50;99.90;;;;;;5076970;28;20028;-75
2023/09/03 00:34:48;;;;;;;9.75;7.35;;;13.60;99.90;;;;;;5065952;28;20035;-75
2023/09/03 00:37:14;;;;;;;7.78;6.75;;;13.60;99.90;;;;;;5069405;28;20422;-75
2023/09/03 00:39:39;;;;;;;8.18;7.22;;;13.60;99.90;;;;;;5062882;28;20421;-75
2023/09/03 00:42:05;;;;;;;10.60;7.60;;;13.50;99.90;;;;;;5067883;28;20686;-74
2023/09/03 00:44:31;;;;;;;10.52;7.43;;;13.60;99.90;;;;;;5086551;28;20028;-75
2023/09/03 00:46:56;;;;;;;8.80;6.97;;;14.40;99.90;;;;;;5073591;28;20498;-74
2023/09/03 00:49:24;;;;;;;8.85;6.20;;;13.60;99.90;;;;;;5063639;28;20100;-75
2023/09/03 00:51:53;;;;;;;7.88;6.75;;;13.50;99.90;;;;;;5062542;28;20475;-75
2023/09/03 00:54:21;;;;;;;9.18;6.78;;;13.50;99.90;;;;;;5069543;28;20507;-75
2023/09/03 00:56:47;;;;;;;8.23;6.30;;;13.50;99.90;;;;;;5071833;28;20439;-75
2023/09/03 00:59:13;;;;;;;7.32;5.70;;;13.50;99.90;;;;;;5057504;28;20042;-75
2023/09/03 01:01:39;;;;;;;5.93;3.60;;;13.50;99.90;;;;;;5068585;28;20400;-75
2023/09/03 01:04:04;;;;;;;3.75;3.33;;;13.60;99.90;;;;;;5069449;28;20511;-74
2023/09/03 01:06:30;;;;;;;6.60;5.85;;;13.50;99.90;;;;;;5066116;28;20052;-74
2023/09/03 01:08:56;;;;;;;5.80;5.15;;;13.50;99.90;;;;;;5059693;28;20032;-75
2023/09/03 01:12:19;;;;;;;8.75;6.35;;;13.50;99.90;;;;;;5064206;28;20487;-74
2023/09/03 01:15:13;;;;;;;7.97;7.05;;;13.50;99.90;;;;;;5004427;28;20437;-74
2023/09/03 01:17:53;;;;;;;8.02;5.90;;;13.50;99.90;;;;;;5089255;28;20067;-75
2023/09/03 01:20:26;;;;;;;6.95;5.85;;;13.40;99.90;;;;;;5070403;28;20048;-74
2023/09/03 01:23:18;;;;;;;9.40;8.43;;;13.40;99.90;;;;;;5090192;28;20368;-74
2023/09/03 01:25:51;;;;;;;9.43;7.60;;;13.40;99.90;;;;;;5067117;28;20047;-75
2023/09/03 01:28:22;;;;;;;7.53;6.53;;;13.40;99.90;;;;;;5056736;28;20128;-75
2023/09/03 01:30:49;;;;;;;6.70;6.00;;;13.50;99.90;;;;;;5073851;28;20172;-75
2023/09/03 01:33:17;;;;;;;8.52;6.95;;;13.40;99.90;;;;;;5073238;28;20454;-74
2023/09/03 01:35:44;;;;;;;8.63;7.13;;;13.40;99.90;;;;;;5073412;28;20268;-74
2023/09/03 01:38:09;;;;;;;8.68;7.50;;;13.40;99.90;;;;;;5081680;28;20043;-75
2023/09/03 01:40:35;;;;;;;9.93;7.60;;;13.50;99.90;;;;;;5080164;28;20047;-75
2023/09/03 01:43:00;;;;;;;10.15;8.80;;;13.60;99.90;;;;;;5074637;28;20032;-75
2023/09/03 01:45:40;;;;;;;11.35;9.15;;;13.60;99.90;;;;;;5073046;28;20399;-74
2023/09/03 01:48:38;;;;;;;10.48;9.38;;;13.50;99.90;;;;;;5089325;28;20044;-75
2023/09/03 01:51:15;;;;;;;10.18;8.68;;;13.50;99.90;;;;;;5069321;28;20047;-74
2023/09/03 01:53:52;;;;;;;10.48;9.38;;;13.50;99.90;;;;;;5071541;28;20054;-74
2023/09/03 01:56:21;;;;;;;10.38;8.88;;;13.50;99.90;;;;;;5074768;28;20044;-74
2023/09/03 01:58:50;;;;;;;10.73;9.40;;;13.50;99.90;;;;;;5071847;28;20365;-74
2023/09/03 02:01:17;;;;;;;9.45;8.45;;;13.50;99.90;;;;;;5073470;28;20046;-75
2023/09/03 02:03:45;;;;;;;10.48;9.15;;;13.50;99.90;;;;;;5071319;28;20075;-74
2023/09/03 02:06:11;;;;;;;10.15;9.00;;;13.50;99.90;;;;;;5090126;28;20495;-74
2023/09/03 02:08:36;;;;;;;10.13;8.45;;;13.50;99.90;;;;;;5071919;28;20039;-75
2023/09/03 02:11:02;;;;;;;8.02;7.22;;;13.50;99.90;;;;;;5072247;28;20071;-75
2023/09/03 02:13:27;;;;;;;8.68;7.25;;;13.40;99.90;;;;;;5072753;28;20083;-75
2023/09/03 02:15:53;;;;;;;8.98;7.80;;;13.40;99.90;;;;;;5072492;28;20126;-74
2023/09/03 02:18:18;;;;;;;9.15;8.20;;;13.30;99.90;;;;;;5071480;28;20072;-74
2023/09/03 02:20:44;;;;;;;8.18;7.15;;;13.40;99.90;;;;;;5071652;28;20071;-75
2023/09/03 02:23:09;;;;;;;8.63;7.70;;;13.40;99.90;;;;;;5071571;28;20119;-75
2023/09/03 02:25:35;;;;;;;9.63;7.60;;;13.40;99.90;;;;;;5071655;28;20131;-75
2023/09/03 02:28:00;;;;;;;8.55;7.20;;;13.30;99.90;;;;;;5068608;28;20035;-75
2023/09/03 02:30:26;;;;;;;9.32;7.97;;;13.30;99.90;;;;;;5071422;28;20392;-74
2023/09/03 02:32:51;;;;;;;9.13;7.78;;;13.30;99.90;;;;;;5071894;28;20042;-74
2023/09/03 02:35:17;;;;;;;9.93;7.63;;;13.30;99.90;;;;;;5071242;28;20085;-74
2023/09/03 02:37:43;;;;;;;7.78;7.00;;;13.20;99.90;;;;;;5071667;28;20047;-75
2023/09/03 02:40:08;;;;;;;6.82;5.90;;;13.20;99.90;;;;;;5071235;28;20048;-75
2023/09/03 02:42:34;;;;;;;9.10;7.53;;;13.10;99.90;;;;;;5076576;28;20044;-75
2023/09/03 02:44:59;;;;;;;10.75;8.20;;;13.00;99.90;;;;;;5090265;28;20111;-74
2023/09/03 02:47:27;;;;;;;9.63;8.25;;;13.00;99.90;;;;;;5073490;28;20039;-74
2023/09/03 02:49:53;;;;;;;9.23;8.20;;;12.90;99.90;;;;;;5078498;28;20040;-74
2023/09/03 02:52:18;;;;;;;9.20;8.18;;;12.90;99.90;;;;;;5072055;28;20047;-75
2023/09/03 02:54:44;;;;;;;9.13;7.93;;;12.90;99.90;;;;;;5071511;28;20396;-74
2023/09/03 02:57:09;;;;;;;8.43;7.53;;;12.90;99.90;;;;;;5070926;28;20043;-74
2023/09/03 02:59:35;;;;;;;9.32;7.85;;;12.90;99.90;;;;;;5072095;28;20036;-75
2023/09/03 03:02:00;;;;;;;8.63;7.65;;;13.00;99.90;;;;;;5074468;28;20036;-74
2023/09/03 03:04:26;;;;;;;8.20;7.32;;;12.90;99.90;;;;;;5067614;28;20032;-74
2023/09/03 03:06:51;;;;;;;8.85;7.72;;;12.90;99.90;;;;;;5070821;28;20085;-74
2023/09/03 03:09:17;;;;;;;9.02;6.85;;;12.90;99.90;;;;;;5071241;28;20040;-75
2023/09/03 03:11:43;;;;;;;7.45;6.65;;;12.90;99.90;;;;;;5070594;28;20036;-75
2023/09/03 03:14:08;;;;;;;7.85;6.50;;;12.90;99.90;;;;;;5071748;28;20078;-75
2023/09/03 03:16:34;;;;;;;7.68;6.18;;;12.90;99.90;;;;;;5054605;28;20051;-75
2023/09/03 03:19:02;;;;;;;7.82;6.45;;;12.80;99.90;;;;;;5070912;28;20036;-75
2023/09/03 03:21:27;;;;;;;8.02;6.80;;;12.80;99.90;;;;;;5070968;28;20036;-75
2023/09/03 03:23:53;;;;;;;12.93;5.75;;;12.80;99.90;;;;;;5054194;28;20124;-75
2023/09/03 03:26:19;;;;;;;8.77;4.50;;;12.70;99.90;;;;;;5070863;28;20469;-74
2023/09/03 03:28:44;;;;;;;4.40;4.00;;;12.80;99.90;;;;;;5071607;28;20050;-74
2023/09/03 03:31:11;;;;;;;7.00;4.82;;;12.70;99.90;;;;;;5071938;28;20044;-74
2023/09/03 03:33:37;;;;;;;5.90;5.30;;;12.70;99.90;;;;;;5071946;28;20580;-74
2023/09/03 03:36:04;;;;;;;8.43;5.90;;;12.70;99.90;;;;;;5071817;28;20115;-75
2023/09/03 03:38:29;;;;;;;8.27;5.60;;;12.70;99.90;;;;;;5071537;28;20051;-75
2023/09/03 03:41:10;;;;;;;8.68;5.80;;;12.70;99.90;;;;;;5071643;28;20035;-75
2023/09/03 03:43:36;;;;;;;5.90;5.30;;;12.70;99.90;;;;;;5073314;28;20407;-74
2023/09/03 03:46:02;;;;;;;4.50;3.90;;;12.70;99.90;;;;;;5078829;28;20032;-75
2023/09/03 03:48:27;;;;;;;4.40;3.50;;;12.70;99.90;;;;;;5078099;28;20039;-74
2023/09/03 03:50:54;;;;;;;3.88;3.42;;;12.70;99.90;;;;;;5075137;28;20040;-75
2023/09/03 03:53:20;;;;;;;5.90;4.38;;;12.70;99.90;;;;;;5071799;28;20040;-75
2023/09/03 03:55:45;;;;;;;8.38;5.28;;;12.60;99.90;;;;;;5067544;28;20036;-74
2023/09/03 03:58:11;;;;;;;6.07;5.47;;;12.50;99.90;;;;;;5067200;28;20044;-74
2023/09/03 04:00:36;;;;;;;7.47;6.43;;;12.40;99.90;;;;;;5059807;28;20044;-74
2023/09/03 04:03:02;;;;;;;6.80;6.13;;;12.30;99.90;;;;;;5067976;28;20041;-75
2023/09/03 04:05:28;;;;;;;6.15;5.38;;;12.40;99.90;;;;;;5064638;28;20047;-74
2023/09/03 04:07:54;;;;;;;5.57;4.60;;;12.40;99.90;;;;;;5069750;28;20119;-75
2023/09/03 04:10:20;;;;;;;4.45;4.05;;;12.30;99.90;;;;;;5074816;28;20118;-74
2023/09/03 04:12:45;;;;;;;7.10;4.20;;;12.30;99.90;;;;;;5069491;28;20525;-74
2023/09/03 04:15:11;;;;;;;5.32;4.35;;;12.30;99.90;;;;;;5060198;28;20040;-74
2023/09/03 04:17:36;;;;;;;4.82;4.32;;;12.30;99.90;;;;;;5060771;28;20123;-74
2023/09/03 04:20:02;;;;;;;7.65;4.82;;;12.20;99.90;;;;;;5067418;28;20436;-74
2023/09/03 04:22:28;;;;;;;5.18;4.47;;;12.20;99.90;;;;;;5067831;28;20427;-75
2023/09/03 04:24:53;;;;;;;6.20;5.10;;;12.20;99.90;;;;;;5064993;28;20132;-74
2023/09/03 04:27:19;;;;;;;7.28;5.53;;;12.20;99.90;;;;;;5070369;28;20039;-74
2023/09/03 04:29:44;;;;;;;6.35;5.50;;;12.20;99.90;;;;;;5074126;28;20069;-74
2023/09/03 04:32:10;;;;;;;8.55;5.50;;;12.20;99.90;;;;;;5084383;28;20546;-75
2023/09/03 04:34:36;;;;;;;5.55;5.00;;;12.20;99.90;;;;;;5069134;28;20032;-74
2023/09/03 04:37:02;;;;;;;8.07;6.68;;;12.20;99.90;;;;;;5066697;28;20093;-74
2023/09/03 04:39:27;;;;;;;7.72;5.95;;;12.20;99.90;;;;;;5060189;28;20052;-74
2023/09/03 04:41:53;;;;;;;9.80;6.20;;;12.30;99.90;;;;;;5063874;28;20050;-74
2023/09/03 04:44:20;;;;;;;7.13;6.20;;;12.30;99.90;;;;;;5062709;28;20523;-74
2023/09/03 04:46:45;;;;;;;6.10;5.50;;;12.30;99.90;;;;;;5068299;28;20036;-74
2023/09/03 04:49:11;;;;;;;9.32;5.88;;;12.30;99.90;;;;;;5080917;28;20042;-74
2023/09/03 04:51:36;;;;;;;8.05;5.32;;;12.30;99.90;;;;;;5073243;28;20162;-75
2023/09/03 04:54:02;;;;;;;8.32;6.55;;;12.30;99.90;;;;;;5083413;28;20067;-74
2023/09/03 04:56:28;;;;;;;7.45;5.50;;;12.30;99.90;;;;;;5053720;28;20222;-74
2023/09/03 04:58:53;;;;;;;5.93;4.50;;;12.30;99.90;;;;;;5084932;28;20036;-74
2023/09/03 05:01:19;;;;;;;6.07;5.05;;;12.30;99.90;;;;;;5064702;28;20046;-74
2023/09/03 05:03:44;;;;;;;4.80;4.30;;;12.30;99.90;;;;;;5068379;28;20055;-74
2023/09/03 05:06:15;;;;;;;5.07;3.78;;;12.30;99.90;;;;;;5065025;28;20028;-74
2023/09/03 05:08:41;;;;;;;4.55;3.55;;;12.30;99.90;;;;;;5065687;28;20032;-74
2023/09/03 05:11:12;;;;;;;5.07;4.00;;;12.30;99.90;;;;;;5057023;28;20499;-76
2023/09/03 05:13:38;;;;;;;5.68;4.40;;;12.20;99.90;;;;;;5045782;28;20041;-75
2023/09/03 05:16:04;;;;;;;6.75;4.53;;;12.30;99.90;;;;;;5055918;28;20036;-75
2023/09/03 05:18:30;;;;;;;4.07;3.67;;;12.30;99.90;;;;;;5059520;28;20033;-76
2023/09/03 05:20:56;;;;;;;4.50;3.38;;;12.30;99.90;;;;;;5065406;28;20137;-74
2023/09/03 05:23:22;;;;;;;4.43;3.67;;;12.30;99.90;;;;;;5067093;28;20152;-74
2023/09/03 05:25:47;;;;;;;3.97;3.58;;;12.30;99.90;;;;;;5067580;28;20032;-74
2023/09/03 05:28:13;;;;;;;4.50;4.03;;;12.30;99.90;;;;;;5071270;28;20058;-75
2023/09/03 05:30:38;;;;;;;7.55;5.32;;;12.30;99.90;;;;;;5084299;28;20403;-74
2023/09/03 05:33:04;;;;;;;8.43;5.20;;;12.30;99.90;;;;;;5062164;28;20056;-75
2023/09/03 05:35:30;;;;;;;6.70;5.95;;;12.30;99.90;;;;;;5056515;28;20040;-74
2023/09/03 05:37:55;;;;;;;6.93;5.45;;;12.40;99.90;;;;;;5065182;28;20071;-75
2023/09/03 05:40:21;;;;;;;5.47;4.55;;;12.50;99.90;;;;;;5064837;28;20036;-74
2023/09/03 05:42:48;;;;;;;7.70;5.20;;;12.60;99.90;;;;;;5056666;28;20044;-74
2023/09/03 05:45:13;;;;;;;5.45;4.82;;;12.70;99.90;;;;;;5090535;28;20411;-75
2023/09/03 05:47:39;;;;;;;6.95;5.00;;;12.80;99.90;;;;;;5072757;28;20024;-74
2023/09/03 05:50:05;;;;;;;7.85;5.18;;;12.90;99.90;;;;;;5072870;28;20093;-74
2023/09/03 05:52:31;;;;;;;5.75;5.15;;;12.90;99.90;;;;;;5073555;28;20047;-74
2023/09/03 05:54:57;;;;;;;5.38;4.88;;;13.00;99.90;;;;;;5071345;28;20036;-74
2023/09/03 05:57:22;;;;;;;7.55;6.00;;;13.00;99.90;;;;;;5058548;28;20044;-74
2023/09/03 05:59:51;;;;;;;7.30;6.47;;;13.10;99.90;;;;;;5072995;28;20036;-74
2023/09/03 06:02:17;;;;;;;8.20;6.43;;;13.20;99.90;;;;;;5070159;28;20032;-74
2023/09/03 06:04:43;;;;;;;9.05;7.35;;;13.20;99.90;;;;;;5072913;28;20102;-75
2023/09/03 06:07:09;;;;;;;8.45;7.35;;;13.30;99.90;;;;;;5069612;28;20123;-75
2023/09/03 06:09:38;;;;;;;8.18;7.00;;;13.40;99.90;;;;;;5090476;28;20049;-74
2023/09/03 06:12:04;;;;;;;8.60;7.50;;;13.50;99.90;;;;;;5072224;28;20272;-74
2023/09/03 06:14:30;;;;;;;7.28;6.57;;;13.50;99.90;;;;;;5074731;28;20441;-75
2023/09/03 06:16:55;;;;;;;8.95;8.05;;;13.50;99.90;;;;;;5076942;28;20097;-75
2023/09/03 06:19:22;;;;;;;7.90;7.10;;;13.50;99.90;;;;;;5072525;28;20048;-74
2023/09/03 06:21:48;;;;;;;8.60;7.78;;;13.60;99.90;;;;;;5069930;28;20453;-75
2023/09/03 06:24:15;;;;;;;9.35;8.38;;;13.70;99.90;;;;;;5065982;28;20044;-74
2023/09/03 06:26:41;;;;;;;8.57;7.68;;;13.80;99.90;;;;;;5072739;28;20036;-75
2023/09/03 06:29:06;;;;;;;8.65;7.10;;;13.90;99.90;;;;;;5075247;28;20568;-75
2023/09/03 06:31:32;;;;;;;7.90;7.10;;;13.90;99.90;;;;;;5071129;28;20036;-74
2023/09/03 06:33:57;;;;;;;9.02;6.90;;;14.00;99.90;;;;;;5072904;28;20065;-74
2023/09/03 06:36:24;;;;;;;8.65;7.75;;;14.00;99.90;;;;;;5071048;28;20326;-74
2023/09/03 06:38:50;;;;;;;10.32;7.32;;;14.10;99.90;;;;;;5054800;28;20036;-74
2023/09/03 06:41:15;;;;;;;8.80;7.00;;;14.20;99.90;;;;;;5071047;28;20118;-74
2023/09/03 06:43:41;;;;;;;9.50;6.90;;;14.30;99.90;;;;;;5068608;28;20097;-75
2023/09/03 06:46:07;;;;;;;7.95;7.18;;;14.40;99.90;;;;;;5073835;28;20036;-75
2023/09/03 06:48:33;;;;;;;8.90;7.47;;;14.40;99.90;;;;;;5071921;28;20028;-75
2023/09/03 06:50:58;;;;;;;8.45;7.32;;;14.50;99.90;;;;;;5066725;28;20043;-75
2023/09/03 06:53:24;;;;;;;8.23;7.18;;;14.60;99.90;;;;;;5069669;28;20048;-74
2023/09/03 06:55:49;;;;;;;7.78;6.97;;;14.60;99.90;;;;;;5068060;28;20032;-75
2023/09/03 06:58:15;;;;;;;9.10;7.50;;;14.70;99.90;;;;;;5065690;28;20035;-75
2023/09/03 07:00:42;;;;;;;7.85;6.85;;;14.90;99.90;;;;;;5066759;28;20179;-75
2023/09/03 07:03:07;;;;;;;11.43;7.97;;;15.00;99.90;;;;;;5067227;28;20108;-75
2023/09/03 07:05:33;;;;;;;8.43;6.65;;;15.10;99.90;;;;;;5064430;28;20111;-75
2023/09/03 07:07:58;;;;;;;9.43;6.85;;;15.30;99.90;;;;;;5071761;28;20036;-75
2023/09/03 07:10:24;;;;;;;7.70;6.90;;;15.40;99.90;;;;;;5070728;28;20341;-75
2023/09/03 07:12:49;;;;;;;7.25;6.55;;;15.60;99.90;;;;;;5070443;28;20039;-76
2023/09/03 07:15:15;;;;;;;8.73;7.03;;;15.80;99.90;;;;;;5072506;28;20043;-76
2023/09/03 07:17:41;;;;;;;8.52;6.25;;;15.90;99.90;;;;;;5076567;28;20036;-76
2023/09/03 07:20:07;;;;;;;7.07;5.82;;;16.10;99.90;;;;;;5075954;28;20044;-75
2023/09/03 07:22:33;;;;;;;7.25;6.07;;;16.30;99.90;;;;;;5075492;28;20043;-75
2023/09/03 07:24:59;;;;;;;7.05;5.72;;;16.40;99.90;;;;;;5074449;28;20031;-76
2023/09/03 07:27:24;;;;;;;7.43;5.40;;;16.50;99.90;;;;;;5073601;28;20513;-75
2023/09/03 07:29:53;;;;;;;6.72;5.75;;;16.60;99.90;;;;;;5074002;28;20571;-75
2023/09/03 07:32:20;;;;;;;7.80;5.95;;;16.70;99.90;;;;;;5073425;28;20036;-75
2023/09/03 07:34:46;;;;;;;7.82;5.35;;;16.80;99.90;;;;;;5072362;28;20051;-75
2023/09/03 07:37:12;;;;;;;7.07;5.10;;;16.90;99.90;;;;;;5058342;28;20112;-75
2023/09/03 07:39:37;;;;;;;7.47;5.20;;;16.90;99.90;;;;;;5067698;28;20040;-75
2023/09/03 07:42:03;;;;;;;5.97;4.97;;;17.00;99.90;;;;;;5067132;28;20251;-75
2023/09/03 07:44:28;;;;;;;6.85;4.40;;;16.90;99.90;;;;;;5065215;28;20032;-75
2023/09/03 07:46:54;;;;;;;6.45;4.72;;;17.00;99.90;;;;;;5085994;28;20381;-76
2023/09/03 07:49:19;;;;;;;6.00;5.40;;;17.00;99.90;;;;;;5063764;28;20080;-75
2023/09/03 07:51:45;;;;;;;5.90;4.70;;;17.10;99.90;;;;;;5063347;28;20085;-76
2023/09/03 07:54:11;;;;;;;5.10;4.60;;;17.30;99.90;;;;;;5075450;28;20040;-76
2023/09/03 07:56:36;;;;;;;5.13;4.35;;;17.50;99.90;;;;;;5072249;28;20066;-76
2023/09/03 07:59:02;;;;;;;5.82;4.50;;;17.70;99.90;;;;;;5072619;28;20068;-76
2023/09/03 08:01:28;;;;;;;5.00;3.83;;;17.80;99.90;;;;;;5074468;28;20090;-74
2023/09/03 08:03:53;;;;;;;6.30;3.95;;;17.90;99.90;;;;;;5073277;28;20040;-74
2023/09/03 08:06:19;;;;;;;4.47;3.55;;;18.00;99.90;;;;;;5080903;28;20418;-74
2023/09/03 08:08:44;;;;;;;5.75;3.08;;;18.00;99.90;;;;;;5076789;28;20074;-74
2023/09/03 08:11:10;;;;;;;5.05;3.08;;;18.10;99.90;;;;;;5072693;28;20348;-74
2023/09/03 08:13:35;;;;;;;3.85;2.72;;;18.20;99.90;;;;;;5073321;28;20036;-74
2023/09/03 08:16:01;;;;;;;4.90;2.70;;;18.20;99.90;;;;;;5073407;28;20055;-74
2023/09/03 08:18:26;;;;;;;4.07;2.78;;;18.20;99.90;;;;;;5072511;28;20051;-74
2023/09/03 08:20:52;;;;;;;6.07;3.03;;;18.10;99.90;;;;;;5073037;28;20123;-74
2023/09/03 08:23:18;;;;;;;5.47;3.20;;;18.20;99.90;;;;;;5056436;28;20126;-74
2023/09/03 08:25:44;;;;;;;7.10;3.13;;;18.20;99.90;;;;;;5072950;28;20043;-74
2023/09/03 08:28:10;;;;;;;6.35;3.22;;;18.30;99.90;;;;;;5073158;28;20046;-74
2023/09/03 08:30:36;;;;;;;4.90;3.10;;;18.40;99.90;;;;;;5058157;28;20119;-74
2023/09/03 08:33:02;;;;;;;4.38;3.15;;;18.50;99.90;;;;;;5074975;28;20068;-74
2023/09/03 08:35:28;;;;;;;5.22;3.58;;;18.50;99.90;;;;;;5075107;28;20040;-74
2023/09/03 08:37:54;;;;;;;5.97;3.13;;;18.60;99.90;;;;;;5074745;28;20040;-75
2023/09/03 08:40:19;;;;;;;5.53;2.85;;;18.60;99.90;;;;;;5077501;28;20032;-74
2023/09/03 08:42:49;;;;;;;5.35;3.00;;;18.70;99.90;;;;;;5074658;28;20399;-74
2023/09/03 08:45:18;;;;;;;4.85;2.97;;;18.80;99.90;;;;;;5074391;28;20048;-75
2023/09/03 08:47:44;;;;;;;4.60;2.97;;;18.80;99.90;;;;;;5057722;28;20248;-74
2023/09/03 08:50:17;;;;;;;3.42;3.00;;;18.90;99.90;;;;;;5075001;28;20525;-74
2023/09/03 08:52:44;;;;;;;7.57;2.90;;;18.90;99.90;;;;;;5074697;28;20036;-75
2023/09/03 08:55:11;;;;;;;4.93;3.10;;;19.00;99.90;;;;;;5074654;28;20040;-74
2023/09/03 08:57:37;;;;;;;3.95;2.72;;;19.10;99.90;;;;;;5073931;28;20055;-74
2023/09/03 09:00:07;;;;;;;6.38;3.10;;;19.10;99.90;;;;;;5074448;28;20040;-75
2023/09/03 09:02:34;;;;;;;4.35;2.78;;;19.20;99.90;;;;;;5074146;28;20032;-74
2023/09/03 09:05:05;;;;;;;4.38;2.90;;;19.20;99.90;;;;;;5074259;28;20079;-74
2023/09/03 09:07:32;;;;;;;5.25;3.17;;;19.30;99.90;;;;;;5073695;28;20503;-74
2023/09/03 09:10:02;;;;;;;4.95;3.28;;;19.30;99.90;;;;;;5074096;28;20044;-74
2023/09/03 09:12:33;;;;;;;4.55;2.95;;;19.30;99.90;;;;;;5074240;28;20044;-77
2023/09/03 09:15:05;;;;;;;4.82;3.30;;;19.30;99.90;;;;;;5074216;28;20039;-77
2023/09/03 09:17:37;;;;;;;3.90;3.22;;;19.30;99.90;;;;;;5073887;28;20427;-76
2023/09/03 09:20:05;;;;;;;5.30;3.35;;;19.40;99.90;;;;;;5057081;28;20051;-75
2023/09/03 09:22:37;;;;;;;4.55;3.00;;;19.30;99.90;;;;;;5074048;28;20036;-77
2023/09/03 09:25:03;;;;;;;6.43;3.10;;;19.30;99.90;;;;;;5069429;28;20399;-77
2023/09/03 09:27:29;;;;;;;4.38;2.38;;;19.30;99.90;;;;;;5056809;28;20038;-74
2023/09/03 09:30:08;;;;;;;3.58;2.60;;;19.30;99.90;;;;;;5068451;28;20521;-74
2023/09/03 09:32:34;;;;;;;3.72;2.80;;;19.30;99.90;;;;;;5072945;28;20044;-74
2023/09/03 09:34:59;;;;;;;4.03;2.60;;;19.30;99.90;;;;;;5055451;28;20036;-75
2023/09/03 09:37:25;;;;;;;6.82;3.03;;;19.30;99.90;;;;;;5073263;28;20504;-74
2023/09/03 09:39:50;;;;;;;5.07;2.78;;;19.30;99.90;;;;;;5072839;28;20040;-74
2023/09/03 09:42:19;;;;;;;3.70;2.70;;;19.40;99.90;;;;;;5056738;28;20040;-74
2023/09/03 09:44:50;;;;;;;3.40;2.90;;;19.40;99.90;;;;;;5073566;28;20549;-74
2023/09/03 09:47:20;;;;;;;3.15;2.00;;;19.30;99.90;;;;;;5056543;28;20043;-74
2023/09/03 09:49:47;;;;;;;2.97;2.20;;;19.40;99.90;;;;;;5073444;28;20068;-74
2023/09/03 09:52:14;;;;;;;3.92;2.70;;;19.40;99.90;;;;;;5073471;28;20048;-74
2023/09/03 09:54:40;;;;;;;4.80;2.40;;;19.50;99.90;;;;;;5073259;28;20048;-74
2023/09/03 09:57:14;;;;;;;2.75;2.05;;;19.50;99.90;;;;;;5073204;28;20392;-77
2023/09/03 09:59:43;;;;;;;;;;;19.60;99.90;;;;;;5065681;28;20036;-74
2023/09/03 10:02:14;;;;;;;2.95;2.22;;;19.70;99.90;;;;;;5073225;28;19969;-74
2023/09/03 10:04:45;;;;;;;2.45;1.88;;;19.90;99.90;;;;;;5081341;28;20047;-74
2023/09/03 10:07:11;;;;;;;5.05;2.10;;;19.90;99.90;;;;;;5072691;28;20035;-77
2023/09/03 10:09:38;;;;;;;3.75;1.90;;;19.90;99.90;;;;;;5072874;28;20112;-74
2023/09/03 10:12:04;;;;;;;3.00;2.10;;;20.10;99.90;;;;;;5056458;28;20040;-74
2023/09/03 10:14:30;;;;;;;5.30;2.10;;;20.10;99.90;;;;;;5073284;28;20403;-74
2023/09/03 10:16:59;;;;;;;3.63;2.38;;;20.20;99.90;;;;;;5072635;28;20115;-73
2023/09/03 10:19:27;;;;;;;2.97;2.00;;;20.20;99.90;;;;;;5072841;28;20047;-74
2023/09/03 10:21:55;;;;;;;3.28;2.00;;;20.30;99.90;;;;;;5072882;28;20539;-74
2023/09/03 10:24:24;;;;;;;3.40;2.28;;;20.40;99.90;;;;;;5072853;28;20135;-74
2023/09/03 10:26:54;;;;;;;4.40;2.50;;;20.50;99.90;;;;;;5072623;28;20062;-74
2023/09/03 10:29:22;;;;;;;3.78;2.40;;;20.50;99.90;;;;;;5072044;28;20036;-74
2023/09/03 10:31:49;;;;;;;3.85;1.90;;;20.60;99.90;;;;;;5072746;28;20044;-74
2023/09/03 10:34:15;;;;;;;2.25;1.60;;;20.60;99.90;;;;;;5072514;28;20123;-74
2023/09/03 10:37:03;;;;;;;2.28;1.58;;;20.60;99.90;;;;;;5056306;28;20085;-75
2023/09/03 10:39:29;;;;;;;4.93;1.98;;;20.70;99.90;;;;;;5072727;28;20456;-75
2023/09/03 10:42:29;;;;;;;3.50;1.70;;;20.70;99.90;;;;;;5056137;28;20064;-75
2023/09/03 10:44:56;;;;;;;3.22;1.45;;;20.90;99.90;;;;;;5072889;28;20059;-75
2023/09/03 10:47:22;;;;;;;3.20;1.48;;;20.90;99.90;;;;;;5072538;28;20126;-75
2023/09/03 10:49:50;;;;;;;3.58;1.55;;;21.00;99.90;;;;;;5072687;28;20123;-75
2023/09/03 10:52:31;;;;;;;2.67;1.50;;;21.00;99.90;;;;;;5075212;28;20119;-75
2023/09/03 10:55:16;;;;;;;2.72;1.50;;;21.00;99.90;;;;;;5070784;28;20050;-76
2023/09/03 10:58:08;;;;;;;4.82;1.70;;;21.00;99.90;;;;;;5068350;28;20040;-75
2023/09/03 11:00:34;;;;;;;3.53;2.00;;;21.20;99.90;;;;;;5068376;28;20105;-75
2023/09/03 11:03:17;;;;;;;3.13;1.90;;;21.30;99.90;;;;;;5076636;28;20074;-75
2023/09/03 11:06:21;;;;;;;6.60;1.60;;;21.40;99.90;;;;;;5068938;28;20549;-75
2023/09/03 11:09:09;;;;;;;3.15;1.35;;;21.50;99.90;;;;;;5068890;28;20044;-76
2023/09/03 11:11:35;;;;;;;3.58;1.30;;;21.50;99.90;;;;;;5074861;28;20048;-75
2023/09/03 11:14:01;;;;;;;4.03;1.70;;;21.50;99.90;;;;;;5071551;28;20115;-75
2023/09/03 11:16:30;;;;;;;1.95;1.40;;;21.50;99.90;;;;;;5078154;28;20032;-76
2023/09/03 11:18:56;;;;;;;3.35;1.55;;;21.60;99.90;;;;;;5077433;28;20109;-76
2023/09/03 11:21:28;;;;;;;3.63;1.50;;;21.60;99.90;;;;;;5077084;28;20069;-76
2023/09/03 11:24:05;;;;;;;3.53;1.65;;;21.80;99.90;;;;;;5074376;28;20040;-76
2023/09/03 11:26:34;;;;;;;3.97;1.70;;;22.10;99.90;;;;;;5073698;28;20040;-77
2023/09/03 11:29:01;;;;;;;3.80;1.85;;;22.20;99.90;;;;;;5078246;28;20036;-77
2023/09/03 11:31:28;;;;;;;4.18;1.48;;;22.40;99.90;;;;;;5074719;28;20082;-76
2023/09/03 11:33:55;;;;;;;2.38;1.40;;;22.60;99.90;;;;;;5075877;28;20048;-77
2023/09/03 11:36:24;;;;;;;3.10;1.30;;;22.90;99.90;;;;;;5077079;28;20043;-76
2023/09/03 11:38:51;;;;;;;2.85;1.63;;;23.10;99.90;;;;;;5073920;28;20166;-77
2023/09/03 11:41:18;;;;;;;2.33;1.50;;;23.10;99.90;;;;;;5088442;28;20048;-77
2023/09/03 11:43:44;;;;;;;2.58;1.55;;;22.80;99.90;;;;;;5079421;28;20498;-77
2023/09/03 11:46:15;;;;;;;3.40;1.70;;;22.60;99.90;;;;;;5083336;28;20043;-77
2023/09/03 11:48:46;;;;;;;2.30;1.38;;;22.60;99.90;;;;;;5074092;28;20567;-77
2023/09/03 11:51:20;;;;;;;3.95;1.65;;;22.80;99.90;;;;;;5075323;28;20499;-76
2023/09/03 11:53:48;;;;;;;3.33;2.00;;;22.70;99.90;;;;;;5077273;28;20086;-77
2023/09/03 11:56:16;;;;;;;3.33;1.92;;;22.80;99.90;;;;;;5076713;28;20120;-77
2023/09/03 11:58:44;;;;;;;2.75;1.45;;;23.00;99.90;;;;;;5082382;28;20036;-77
2023/09/03 12:01:12;;;;;;;1.80;1.40;;;23.10;99.90;;;;;;5078360;28;20040;-77
2023/09/03 12:03:38;;;;;;;2.20;1.23;;;23.10;99.90;;;;;;5059879;28;20036;-77
2023/09/03 12:06:04;;;;;;;3.55;1.60;;;23.20;99.90;;;;;;5076588;28;20043;-78
2023/09/03 12:08:32;;;;;;;2.72;1.58;;;23.40;99.90;;;;;;5079209;28;20042;-77
2023/09/03 12:10:58;;;;;;;4.00;1.50;;;23.60;99.90;;;;;;5078690;28;20719;-77
2023/09/03 12:13:34;;;;;;;3.05;1.50;;;23.50;99.90;;;;;;5076615;28;20082;-77
2023/09/03 12:16:08;;;;;;;2.53;1.27;;;23.20;99.90;;;;;;5078261;28;20032;-77
2023/09/03 12:18:34;;;;;;;1.85;1.05;;;23.20;99.90;;;;;;5056649;28;20044;-77
2023/09/03 12:21:00;;;;;;;1.85;1.20;;;23.20;99.90;;;;;;5061428;28;20499;-77
2023/09/03 12:23:26;;;;;;;2.83;1.30;;;23.20;99.90;;;;;;5075124;28;20051;-77
2023/09/03 12:25:52;;;;;;;3.08;1.20;;;23.30;99.90;;;;;;5075235;28;20032;-77
2023/09/03 12:28:17;;;;;;;2.63;1.20;;;23.50;99.90;;;;;;5074777;28;20067;-77
2023/09/03 12:31:13;;;;;;;2.42;1.20;;;23.80;99.90;;;;;;5074625;28;20032;-77
2023/09/03 12:33:47;;;;;;;3.83;1.48;;;23.90;99.90;;;;;;5061531;28;20051;-78
2023/09/03 12:36:18;;;;;;;1.92;1.10;;;24.20;99.90;;;;;;5058414;28;20040;-78
2023/09/03 12:38:48;;;;;;;2.30;1.05;;;24.30;99.90;;;;;;5074313;28;20092;-78
2023/09/03 12:41:14;;;;;;;1.75;1.05;;;24.40;99.90;;;;;;5074520;28;20170;-78
2023/09/03 12:43:41;;;;;;;2.95;1.05;;;24.60;99.90;;;;;;5074088;28;20040;-77
2023/09/03 12:46:08;;;;;;;3.47;1.10;;;24.50;99.90;;;;;;5073586;28;20036;-77
2023/09/03 12:48:33;;;;;;;3.22;1.10;;;24.50;99.90;;;;;;5075037;28;20039;-78